sensor_id;sensor_type;location;lat;lon;timestamp;temperature;humidity
14670;DHT22;7423;48.722;9.350;2023-10-13T00:01:36;19.90;99.90
14670;DHT22;7423;48.722;9.350;2023-10-13T00:04:04;19.90;99.90
14670;DHT22;7423;48.722;9.350;2023-10-13T00:06:32;19.90;99.90
14670;DHT22;7423;48.722;9.350;2023-10-13T00:08:59;19.90;99.90
14670;DHT22;7423;48.722;9.350;2023-10-13T00:11:26;19.80;99.90
14670;DHT22;7423;48.722;9.350;2023-10-13T00:13:53;19.80;99.90
14670;DHT22;7423;48.722;9.350;2023-10-13T00:16:21;19.80;99.90
14670;DHT22;7423;48.722;9.350;2023-10-13T00:18:50;19.80;99.90
14670;DHT22;7423;48.722;9.350;2023-10-13T00:21:21;19.70;99.90
14670;DHT22;7423;48.722;9.350;2023-10-13T00:23:59;20.40;99.90
14670;DHT22;7423;48.722;9.350;2023-10-13T00:26:29;19.80;99.90
14670;DHT22;7423;48.722;9.350;2023-10-13T00:29:01;19.70;99.90
14670;DHT22;7423;48.722;9.350;2023-10-13T00:31:37;19.60;99.90
14670;DHT22;7423;48.722;9.350;2023-10-13T00:34:07;19.60;99.90
14670;DHT22;7423;48.722;9.350;2023-10-13T00:36:54;19.60;99.90
14670;DHT22;7423;48.722;9.350;2023-10-13T00:39:41;19.60;99.90
14670;DHT22;7423;48.722;9.350;2023-10-13T00:42:14;19.50;99.90
14670;DHT22;7423;48.722;9.350;2023-10-13T00:44:46;19.50;99.90
14670;DHT22;7423;48.722;9.350;2023-10-13T00:47:18;19.50;99.90
14670;DHT22;7423;48.722;9.350;2023-10-13T00:50:04;19.70;99.90
14670;DHT22;7423;48.722;9.350;2023-10-13T00:52:33;19.50;99.90
14670;DHT22;7423;48.722;9.350;2023-10-13T00:55:04;19.40;99.90
14670;DHT22;7423;48.722;9.350;2023-10-13T00:57:35;19.40;99.90
14670;DHT22;7423;48.722;9.350;2023-10-13T01:00:03;19.40;99.90
14670;DHT22;7423;48.722;9.350;2023-10-13T01:02:47;19.30;99.90
14670;DHT22;7423;48.722;9.350;2023-10-13T01:05:26;19.20;99.90
14670;DHT22;7423;48.722;9.350;2023-10-13T01:07:53;19.20;99.90
14670;DHT22;7423;48.722;9.350;2023-10-13T01:10:21;19.20;99.90
14670;DHT22;7423;48.722;9.350;2023-10-13T01:12:54;19.10;99.90
14670;DHT22;7423;48.722;9.350;2023-10-13T01:15:21;19.10;99.90
14670;DHT22;7423;48.722;9.350;2023-10-13T01:17:48;19.10;99.90
14670;DHT22;7423;48.722;9.350;2023-10-13T01:20:16;19.10;99.90
14670;DHT22;7423;48.722;9.350;2023-10-13T01:22:51;19.10;99.90
14670;DHT22;7423;48.722;9.350;2023-10-13T01:25:25;19.10;99.90
14670;DHT22;7423;48.722;9.350;2023-10-13T01:27:55;19.30;99.90
14670;DHT22;7423;48.722;9.350;2023-10-13T01:30:22;19.00;99.90
14670;DHT22;7423;48.722;9.350;2023-10-13T01:32:54;19.00;99.90
14670;DHT22;7423;48.722;9.350;2023-10-13T01:35:23;18.90;99.90
14670;DHT22;7423;48.722;9.350;2023-10-13T01:37:52;18.90;99.90
14670;DHT22;7423;48.722;9.350;2023-10-13T01:40:18;18.90;99.90
14670;DHT22;7423;48.722;9.350;2023-10-13T01:42:47;18.90;99.90
14670;DHT22;7423;48.722;9.350;2023-10-13T01:45:22;18.90;99.90
14670;DHT22;7423;48.722;9.350;2023-10-13T01:47:56;18.80;99.90
14670;DHT22;7423;48.722;9.350;2023-10-13T01:50:23;18.80;99.90
14670;DHT22;7423;48.722;9.350;2023-10-13T01:52:56;18.80;99.90
14670;DHT22;7423;48.722;9.350;2023-10-13T01:55:39;18.60;99.90
14670;DHT22;7423;48.722;9.350;2023-10-13T01:58:11;18.70;99.90
14670;DHT22;7423;48.722;9.350;2023-10-13T02:00:43;18.70;99.90
14670;DHT22;7423;48.722;9.350;2023-10-13T02:03:12;18.70;99.90
14670;DHT22;7423;48.722;9.350;2023-10-13T02:05:48;18.60;99.90
14670;DHT22;7423;48.722;9.350;2023-10-13T02:08:17;18.40;99.90
14670;DHT22;7423;48.722;9.350;2023-10-13T02:10:50;18.40;99.90
14670;DHT22;7423;48.722;9.350;2023-10-13T02:13:19;18.40;99.90
14670;DHT22;7423;48.722;9.350;2023-10-13T02:15:47;18.40;99.90
14670;DHT22;7423;48.722;9.350;2023-10-13T02:18:16;18.50;99.90
14670;DHT22;7423;48.722;9.350;2023-10-13T02:20:47;18.40;99.90
14670;DHT22;7423;48.722;9.350;2023-10-13T02:23:25;18.40;99.90
14670;DHT22;7423;48.722;9.350;2023-10-13T02:25:56;18.40;99.90
14670;DHT22;7423;48.722;9.350;2023-10-13T02:28:37;18.40;99.90
14670;DHT22;7423;48.722;9.350;2023-10-13T02:31:05;18.30;99.90
14670;DHT22;7423;48.722;9.350;2023-10-13T02:33:34;18.90;99.90
14670;DHT22;7423;48.722;9.350;2023-10-13T02:36:03;18.30;99.90
14670;DHT22;7423;48.722;9.350;2023-10-13T02:38:33;18.40;99.90
14670;DHT22;7423;48.722;9.350;2023-10-13T02:41:10;18.30;99.90
14670;DHT22;7423;48.722;9.350;2023-10-13T02:43:38;18.30;99.90
14670;DHT22;7423;48.722;9.350;2023-10-13T02:46:06;18.30;99.90
14670;DHT22;7423;48.722;9.350;2023-10-13T02:48:33;18.30;99.90
14670;DHT22;7423;48.722;9.350;2023-10-13T02:51:12;18.20;99.90
14670;DHT22;7423;48.722;9.350;2023-10-13T02:53:47;18.20;99.90
14670;DHT22;7423;48.722;9.350;2023-10-13T02:56:18;18.20;99.90
14670;DHT22;7423;48.722;9.350;2023-10-13T02:58:50;18.10;99.90
14670;DHT22;7423;48.722;9.350;2023-10-13T03:01:23;18.10;99.90
14670;DHT22;7423;48.722;9.350;2023-10-13T03:04:04;18.10;99.90
14670;DHT22;7423;48.722;9.350;2023-10-13T03:06:36;18.20;99.90
14670;DHT22;7423;48.722;9.350;2023-10-13T03:09:10;18.10;99.90
14670;DHT22;7423;48.722;9.350;2023-10-13T03:11:42;18.10;99.90
14670;DHT22;7423;48.722;9.350;2023-10-13T03:14:22;18.10;99.90
14670;DHT22;7423;48.722;9.350;2023-10-13T03:17:02;18.10;99.90
14670;DHT22;7423;48.722;9.350;2023-10-13T03:19:33;18.00;99.90
14670;DHT22;7423;48.722;9.350;2023-10-13T03:22:02;18.00;99.90
14670;DHT22;7423;48.722;9.350;2023-10-13T03:24:37;18.00;99.90
14670;DHT22;7423;48.722;9.350;2023-10-13T03:27:15;17.90;99.90
14670;DHT22;7423;48.722;9.350;2023-10-13T03:29:45;17.90;99.90
14670;DHT22;7423;48.722;9.350;2023-10-13T03:32:21;17.90;99.90
14670;DHT22;7423;48.722;9.350;2023-10-13T03:34:53;17.80;99.90
14670;DHT22;7423;48.722;9.350;2023-10-13T03:37:21;17.80;99.90
14670;DHT22;7423;48.722;9.350;2023-10-13T03:40:11;17.80;99.90
14670;DHT22;7423;48.722;9.350;2023-10-13T03:42:50;17.70;99.90
14670;DHT22;7423;48.722;9.350;2023-10-13T03:45:40;17.70;99.90
14670;DHT22;7423;48.722;9.350;2023-10-13T03:48:11;17.60;99.90
14670;DHT22;7423;48.722;9.350;2023-10-13T03:50:54;17.60;99.90
14670;DHT22;7423;48.722;9.350;2023-10-13T03:53:37;17.60;99.90
14670;DHT22;7423;48.722;9.350;2023-10-13T03:56:22;17.50;99.90
14670;DHT22;7423;48.722;9.350;2023-10-13T03:59:15;17.40;99.90
14670;DHT22;7423;48.722;9.350;2023-10-13T04:01:42;17.40;99.90
14670;DHT22;7423;48.722;9.350;2023-10-13T04:04:11;17.50;99.90
14670;DHT22;7423;48.722;9.350;2023-10-13T04:07:02;17.50;99.90
14670;DHT22;7423;48.722;9.350;2023-10-13T04:09:37;17.40;99.90
14670;DHT22;7423;48.722;9.350;2023-10-13T04:12:07;17.40;99.90
14670;DHT22;7423;48.722;9.350;2023-10-13T04:14:53;17.40;99.90
14670;DHT22;7423;48.722;9.350;2023-10-13T04:17:49;17.40;99.90
14670;DHT22;7423;48.722;9.350;2023-10-13T04:20:17;17.30;99.90
14670;DHT22;7423;48.722;9.350;2023-10-13T04:22:59;17.30;99.90
14670;DHT22;7423;48.722;9.350;2023-10-13T04:25:29;17.30;99.90
14670;DHT22;7423;48.722;9.350;2023-10-13T04:28:03;17.30;99.90
14670;DHT22;7423;48.722;9.350;2023-10-13T04:30:45;17.30;99.90
14670;DHT22;7423;48.722;9.350;2023-10-13T04:33:30;17.30;99.90
14670;DHT22;7423;48.722;9.350;2023-10-13T04:36:08;17.20;99.90
14670;DHT22;7423;48.722;9.350;2023-10-13T04:38:59;18.70;99.90
14670;DHT22;7423;48.722;9.350;2023-10-13T04:41:40;16.90;99.90
14670;DHT22;7423;48.722;9.350;2023-10-13T04:44:24;17.20;99.90
14670;DHT22;7423;48.722;9.350;2023-10-13T04:47:10;17.10;99.90
14670;DHT22;7423;48.722;9.350;2023-10-13T04:49:45;17.10;99.90
14670;DHT22;7423;48.722;9.350;2023-10-13T04:52:12;17.10;99.90
14670;DHT22;7423;48.722;9.350;2023-10-13T04:54:45;17.10;99.90
14670;DHT22;7423;48.722;9.350;2023-10-13T04:57:18;17.10;99.90
14670;DHT22;7423;48.722;9.350;2023-10-13T05:00:01;17.10;99.90
14670;DHT22;7423;48.722;9.350;2023-10-13T05:02:30;17.00;99.90
14670;DHT22;7423;48.722;9.350;2023-10-13T05:05:19;17.00;99.90
14670;DHT22;7423;48.722;9.350;2023-10-13T05:07:52;16.90;99.90
14670;DHT22;7423;48.722;9.350;2023-10-13T05:10:38;16.90;99.90
14670;DHT22;7423;48.722;9.350;2023-10-13T05:13:24;16.80;99.90
14670;DHT22;7423;48.722;9.350;2023-10-13T05:16:09;16.80;99.90
14670;DHT22;7423;48.722;9.350;2023-10-13T05:18:55;16.80;99.90
14670;DHT22;7423;48.722;9.350;2023-10-13T05:21:41;16.80;99.90
14670;DHT22;7423;48.722;9.350;2023-10-13T05:24:26;16.90;99.90
14670;DHT22;7423;48.722;9.350;2023-10-13T05:27:12;16.80;99.90
14670;DHT22;7423;48.722;9.350;2023-10-13T05:29:57;16.80;99.90
14670;DHT22;7423;48.722;9.350;2023-10-13T05:32:42;16.90;99.90
14670;DHT22;7423;48.722;9.350;2023-10-13T05:35:30;16.80;99.90
14670;DHT22;7423;48.722;9.350;2023-10-13T05:38:16;16.80;99.90
14670;DHT22;7423;48.722;9.350;2023-10-13T05:41:05;16.70;99.90
14670;DHT22;7423;48.722;9.350;2023-10-13T05:43:52;16.70;99.90
14670;DHT22;7423;48.722;9.350;2023-10-13T05:46:37;16.80;99.90
14670;DHT22;7423;48.722;9.350;2023-10-13T05:49:08;16.80;99.90
14670;DHT22;7423;48.722;9.350;2023-10-13T05:51:37;16.80;99.90
14670;DHT22;7423;48.722;9.350;2023-10-13T05:54:08;16.20;99.90
14670;DHT22;7423;48.722;9.350;2023-10-13T05:56:55;16.80;99.90
14670;DHT22;7423;48.722;9.350;2023-10-13T05:59:42;16.70;99.90
14670;DHT22;7423;48.722;9.350;2023-10-13T06:02:28;16.70;99.90
14670;DHT22;7423;48.722;9.350;2023-10-13T06:05:14;16.70;99.90
14670;DHT22;7423;48.722;9.350;2023-10-13T06:07:59;16.70;99.90
14670;DHT22;7423;48.722;9.350;2023-10-13T06:10:46;16.80;99.90
14670;DHT22;7423;48.722;9.350;2023-10-13T06:13:36;16.70;99.90
14670;DHT22;7423;48.722;9.350;2023-10-13T06:16:22;16.70;99.90
14670;DHT22;7423;48.722;9.350;2023-10-13T06:19:07;16.70;99.90
14670;DHT22;7423;48.722;9.350;2023-10-13T06:21:53;16.70;99.90
14670;DHT22;7423;48.722;9.350;2023-10-13T06:24:40;16.80;99.90
14670;DHT22;7423;48.722;9.350;2023-10-13T06:27:27;16.70;99.90
14670;DHT22;7423;48.722;9.350;2023-10-13T06:30:13;16.70;99.90
14670;DHT22;7423;48.722;9.350;2023-10-13T06:32:40;16.70;99.90
14670;DHT22;7423;48.722;9.350;2023-10-13T06:35:08;16.80;99.90
14670;DHT22;7423;48.722;9.350;2023-10-13T06:37:45;16.70;99.90
14670;DHT22;7423;48.722;9.350;2023-10-13T06:40:13;16.70;99.90
14670;DHT22;7423;48.722;9.350;2023-10-13T06:42:53;16.80;99.90
14670;DHT22;7423;48.722;9.350;2023-10-13T06:45:23;16.80;99.90
14670;DHT22;7423;48.722;9.350;2023-10-13T06:47:55;16.80;99.90
14670;DHT22;7423;48.722;9.350;2023-10-13T06:50:25;16.80;99.90
14670;DHT22;7423;48.722;9.350;2023-10-13T06:52:52;16.90;99.90
14670;DHT22;7423;48.722;9.350;2023-10-13T06:55:23;16.90;99.90
14670;DHT22;7423;48.722;9.350;2023-10-13T06:57:54;17.00;99.90
14670;DHT22;7423;48.722;9.350;2023-10-13T07:00:28;17.00;99.90
14670;DHT22;7423;48.722;9.350;2023-10-13T07:02:56;17.00;99.90
14670;DHT22;7423;48.722;9.350;2023-10-13T07:05:58;17.00;99.90
14670;DHT22;7423;48.722;9.350;2023-10-13T07:08:27;17.10;99.90
14670;DHT22;7423;48.722;9.350;2023-10-13T07:10:59;17.10;99.90
14670;DHT22;7423;48.722;9.350;2023-10-13T07:13:29;17.20;99.90
14670;DHT22;7423;48.722;9.350;2023-10-13T07:15:59;17.20;99.90
14670;DHT22;7423;48.722;9.350;2023-10-13T07:18:35;17.20;99.90
14670;DHT22;7423;48.722;9.350;2023-10-13T07:21:11;17.20;99.90
14670;DHT22;7423;48.722;9.350;2023-10-13T07:23:39;17.30;99.90
14670;DHT22;7423;48.722;9.350;2023-10-13T07:26:27;17.40;99.90
14670;DHT22;7423;48.722;9.350;2023-10-13T07:28:55;17.40;99.90
14670;DHT22;7423;48.722;9.350;2023-10-13T07:31:22;17.50;99.90
14670;DHT22;7423;48.722;9.350;2023-10-13T07:33:53;17.50;99.90
14670;DHT22;7423;48.722;9.350;2023-10-13T07:36:32;17.60;99.90
14670;DHT22;7423;48.722;9.350;2023-10-13T07:39:06;17.70;99.90
14670;DHT22;7423;48.722;9.350;2023-10-13T07:41:50;17.70;99.90
14670;DHT22;7423;48.722;9.350;2023-10-13T07:44:22;17.80;99.90
14670;DHT22;7423;48.722;9.350;2023-10-13T07:46:53;17.80;99.90
14670;DHT22;7423;48.722;9.350;2023-10-13T07:49:29;17.90;99.90
14670;DHT22;7423;48.722;9.350;2023-10-13T07:52:10;18.00;99.90
14670;DHT22;7423;48.722;9.350;2023-10-13T07:54:48;18.00;99.90
14670;DHT22;7423;48.722;9.350;2023-10-13T07:57:26;18.10;99.90
14670;DHT22;7423;48.722;9.350;2023-10-13T07:59:56;18.10;99.90
14670;DHT22;7423;48.722;9.350;2023-10-13T08:02:59;18.20;99.90
14670;DHT22;7423;48.722;9.350;2023-10-13T08:05:38;18.20;99.90
14670;DHT22;7423;48.722;9.350;2023-10-13T08:08:24;18.30;99.90
14670;DHT22;7423;48.722;9.350;2023-10-13T08:11:18;18.30;99.90
14670;DHT22;7423;48.722;9.350;2023-10-13T08:16:41;18.30;99.90
14670;DHT22;7423;48.722;9.350;2023-10-13T08:19:25;18.40;99.90
14670;DHT22;7423;48.722;9.350;2023-10-13T08:22:12;18.50;99.90
14670;DHT22;7423;48.722;9.350;2023-10-13T08:24:50;18.50;99.90
14670;DHT22;7423;48.722;9.350;2023-10-13T08:27:20;18.50;99.90
14670;DHT22;7423;48.722;9.350;2023-10-13T08:30:15;18.50;99.90
14670;DHT22;7423;48.722;9.350;2023-10-13T08:32:56;18.60;99.90
14670;DHT22;7423;48.722;9.350;2023-10-13T08:35:26;18.60;99.90
14670;DHT22;7423;48.722;9.350;2023-10-13T08:38:04;18.60;99.90
14670;DHT22;7423;48.722;9.350;2023-10-13T08:40:50;18.60;99.90
14670;DHT22;7423;48.722;9.350;2023-10-13T08:44:01;18.60;99.90
14670;DHT22;7423;48.722;9.350;2023-10-13T08:46:31;18.70;99.90
14670;DHT22;7423;48.722;9.350;2023-10-13T08:49:19;18.80;99.90
14670;DHT22;7423;48.722;9.350;2023-10-13T08:51:50;18.80;99.90
14670;DHT22;7423;48.722;9.350;2023-10-13T08:54:33;18.80;99.90
14670;DHT22;7423;48.722;9.350;2023-10-13T08:57:06;18.80;99.90
14670;DHT22;7423;48.722;9.350;2023-10-13T08:59:51;18.90;99.90
14670;DHT22;7423;48.722;9.350;2023-10-13T09:02:22;18.90;99.90
14670;DHT22;7423;48.722;9.350;2023-10-13T09:05:10;19.00;99.90
14670;DHT22;7423;48.722;9.350;2023-10-13T09:07:57;19.10;99.90
14670;DHT22;7423;48.722;9.350;2023-10-13T09:10:36;19.00;99.90
14670;DHT22;7423;48.722;9.350;2023-10-13T09:13:11;19.20;99.90
14670;DHT22;7423;48.722;9.350;2023-10-13T09:15:47;19.20;99.90
14670;DHT22;7423;48.722;9.350;2023-10-13T09:18:27;19.30;99.90
14670;DHT22;7423;48.722;9.350;2023-10-13T09:21:16;19.30;99.90
14670;DHT22;7423;48.722;9.350;2023-10-13T09:24:14;19.40;99.90
14670;DHT22;7423;48.722;9.350;2023-10-13T09:26:59;19.50;99.90
14670;DHT22;7423;48.722;9.350;2023-10-13T09:29:28;19.60;99.90
14670;DHT22;7423;48.722;9.350;2023-10-13T09:32:03;19.70;99.90
14670;DHT22;7423;48.722;9.350;2023-10-13T09:34:32;19.70;99.90
14670;DHT22;7423;48.722;9.350;2023-10-13T09:37:02;19.80;99.90
14670;DHT22;7423;48.722;9.350;2023-10-13T09:39:32;19.80;99.90
14670;DHT22;7423;48.722;9.350;2023-10-13T09:42:12;19.90;99.90
14670;DHT22;7423;48.722;9.350;2023-10-13T09:44:45;20.00;99.90
14670;DHT22;7423;48.722;9.350;2023-10-13T09:47:23;20.00;99.90
14670;DHT22;7423;48.722;9.350;2023-10-13T09:50:08;20.10;99.90
14670;DHT22;7423;48.722;9.350;2023-10-13T09:52:43;20.30;99.90
14670;DHT22;7423;48.722;9.350;2023-10-13T09:55:27;20.40;99.90
14670;DHT22;7423;48.722;9.350;2023-10-13T09:58:03;20.40;99.90
14670;DHT22;7423;48.722;9.350;2023-10-13T10:00:50;20.40;99.90
14670;DHT22;7423;48.722;9.350;2023-10-13T10:03:25;20.50;99.90
14670;DHT22;7423;48.722;9.350;2023-10-13T10:06:08;20.60;99.90
14670;DHT22;7423;48.722;9.350;2023-10-13T10:08:45;20.70;99.90
14670;DHT22;7423;48.722;9.350;2023-10-13T10:17:08;21.00;99.90
14670;DHT22;7423;48.722;9.350;2023-10-13T10:19:54;21.00;99.90
14670;DHT22;7423;48.722;9.350;2023-10-13T10:22:29;21.00;99.90
14670;DHT22;7423;48.722;9.350;2023-10-13T10:25:04;21.30;99.50
14670;DHT22;7423;48.722;9.350;2023-10-13T10:27:59;21.40;99.70
14670;DHT22;7423;48.722;9.350;2023-10-13T10:30:28;21.50;99.60
14670;DHT22;7423;48.722;9.350;2023-10-13T10:32:57;21.60;98.60
14670;DHT22;7423;48.722;9.350;2023-10-13T10:35:35;21.80;96.40
14670;DHT22;7423;48.722;9.350;2023-10-13T10:38:10;21.90;96.40
14670;DHT22;7423;48.722;9.350;2023-10-13T10:40:57;22.10;95.60
14670;DHT22;7423;48.722;9.350;2023-10-13T10:48:45;22.50;94.20
14670;DHT22;7423;48.722;9.350;2023-10-13T10:51:13;22.80;93.20
14670;DHT22;7423;48.722;9.350;2023-10-13T10:53:42;22.90;92.70
14670;DHT22;7423;48.722;9.350;2023-10-13T10:56:13;23.20;92.10
14670;DHT22;7423;48.722;9.350;2023-10-13T10:58:49;23.40;91.90
14670;DHT22;7423;48.722;9.350;2023-10-13T11:01:26;23.50;91.40
14670;DHT22;7423;48.722;9.350;2023-10-13T11:04:01;23.60;91.10
14670;DHT22;7423;48.722;9.350;2023-10-13T11:06:47;23.70;91.40
14670;DHT22;7423;48.722;9.350;2023-10-13T11:09:25;23.70;91.40
14670;DHT22;7423;48.722;9.350;2023-10-13T11:12:10;23.80;90.70
14670;DHT22;7423;48.722;9.350;2023-10-13T11:15:02;24.00;90.50
14670;DHT22;7423;48.722;9.350;2023-10-13T11:17:50;24.20;90.20
14670;DHT22;7423;48.722;9.350;2023-10-13T11:20:26;24.30;90.00
14670;DHT22;7423;48.722;9.350;2023-10-13T11:23:00;24.40;90.30
14670;DHT22;7423;48.722;9.350;2023-10-13T11:25:32;24.50;87.00
14670;DHT22;7423;48.722;9.350;2023-10-13T11:28:12;24.60;87.00
14670;DHT22;7423;48.722;9.350;2023-10-13T11:30:47;24.80;84.00
14670;DHT22;7423;48.722;9.350;2023-10-13T11:33:18;25.00;83.70
14670;DHT22;7423;48.722;9.350;2023-10-13T11:35:51;25.00;83.90
14670;DHT22;7423;48.722;9.350;2023-10-13T11:38:29;25.10;82.50
14670;DHT22;7423;48.722;9.350;2023-10-13T11:41:16;25.20;82.80
14670;DHT22;7423;48.722;9.350;2023-10-13T11:43:51;25.30;81.60
14670;DHT22;7423;48.722;9.350;2023-10-13T11:46:22;25.40;82.10
14670;DHT22;7423;48.722;9.350;2023-10-13T11:49:04;25.30;81.00
14670;DHT22;7423;48.722;9.350;2023-10-13T11:51:54;25.40;81.00
14670;DHT22;7423;48.722;9.350;2023-10-13T11:54:34;25.50;80.90
14670;DHT22;7423;48.722;9.350;2023-10-13T11:57:02;25.70;80.30
14670;DHT22;7423;48.722;9.350;2023-10-13T11:59:29;25.70;79.70
14670;DHT22;7423;48.722;9.350;2023-10-13T12:01:56;25.80;79.00
14670;DHT22;7423;48.722;9.350;2023-10-13T12:04:41;25.70;78.40
14670;DHT22;7423;48.722;9.350;2023-10-13T12:07:31;25.60;78.60
14670;DHT22;7423;48.722;9.350;2023-10-13T12:10:15;25.90;78.00
14670;DHT22;7423;48.722;9.350;2023-10-13T12:12:43;26.00;77.20
14670;DHT22;7423;48.722;9.350;2023-10-13T12:15:13;26.10;76.90
14670;DHT22;7423;48.722;9.350;2023-10-13T12:17:52;26.10;77.40
14670;DHT22;7423;48.722;9.350;2023-10-13T12:20:20;26.20;75.80
14670;DHT22;7423;48.722;9.350;2023-10-13T12:23:00;26.20;75.70
14670;DHT22;7423;48.722;9.350;2023-10-13T12:25:39;26.20;76.50
14670;DHT22;7423;48.722;9.350;2023-10-13T12:28:23;26.30;75.80
14670;DHT22;7423;48.722;9.350;2023-10-13T12:30:53;26.40;74.50
14670;DHT22;7423;48.722;9.350;2023-10-13T12:33:25;26.60;75.40
14670;DHT22;7423;48.722;9.350;2023-10-13T12:36:03;26.80;75.50
14670;DHT22;7423;48.722;9.350;2023-10-13T12:38:37;26.90;75.00
14670;DHT22;7423;48.722;9.350;2023-10-13T12:41:16;27.00;74.40
14670;DHT22;7423;48.722;9.350;2023-10-13T12:44:04;27.10;73.90
14670;DHT22;7423;48.722;9.350;2023-10-13T12:46:52;27.10;74.60
14670;DHT22;7423;48.722;9.350;2023-10-13T12:49:40;27.10;74.20
14670;DHT22;7423;48.722;9.350;2023-10-13T12:52:11;27.10;74.90
14670;DHT22;7423;48.722;9.350;2023-10-13T12:54:59;27.20;73.60
14670;DHT22;7423;48.722;9.350;2023-10-13T12:57:33;27.20;74.20
14670;DHT22;7423;48.722;9.350;2023-10-13T13:00:00;27.30;73.80
14670;DHT22;7423;48.722;9.350;2023-10-13T13:02:29;27.30;74.30
14670;DHT22;7423;48.722;9.350;2023-10-13T13:04:57;27.30;74.70
14670;DHT22;7423;48.722;9.350;2023-10-13T13:07:32;27.40;74.50
14670;DHT22;7423;48.722;9.350;2023-10-13T13:10:10;27.40;74.00
14670;DHT22;7423;48.722;9.350;2023-10-13T13:12:41;27.40;73.90
14670;DHT22;7423;48.722;9.350;2023-10-13T13:15:09;27.30;74.50
14670;DHT22;7423;48.722;9.350;2023-10-13T13:17:39;27.30;74.70
14670;DHT22;7423;48.722;9.350;2023-10-13T13:20:07;27.40;74.60
14670;DHT22;7423;48.722;9.350;2023-10-13T13:22:38;27.30;75.20
14670;DHT22;7423;48.722;9.350;2023-10-13T13:25:06;27.30;74.20
14670;DHT22;7423;48.722;9.350;2023-10-13T13:27:35;27.30;73.90
14670;DHT22;7423;48.722;9.350;2023-10-13T13:30:06;27.40;73.50
14670;DHT22;7423;48.722;9.350;2023-10-13T13:32:39;27.50;73.00
14670;DHT22;7423;48.722;9.350;2023-10-13T13:35:07;27.50;73.70
14670;DHT22;7423;48.722;9.350;2023-10-13T13:37:40;27.50;74.10
14670;DHT22;7423;48.722;9.350;2023-10-13T13:40:10;27.50;74.60
14670;DHT22;7423;48.722;9.350;2023-10-13T13:42:45;27.50;73.70
14670;DHT22;7423;48.722;9.350;2023-10-13T13:45:16;27.60;73.20
14670;DHT22;7423;48.722;9.350;2023-10-13T13:47:59;27.50;73.90
14670;DHT22;7423;48.722;9.350;2023-10-13T13:50:27;27.60;72.70
14670;DHT22;7423;48.722;9.350;2023-10-13T13:52:57;27.80;72.50
14670;DHT22;7423;48.722;9.350;2023-10-13T13:55:25;27.90;72.20
14670;DHT22;7423;48.722;9.350;2023-10-13T13:57:56;28.00;71.10
14670;DHT22;7423;48.722;9.350;2023-10-13T14:00:24;28.00;70.30
14670;DHT22;7423;48.722;9.350;2023-10-13T14:03:07;28.10;70.40
14670;DHT22;7423;48.722;9.350;2023-10-13T14:05:59;28.20;68.70
14670;DHT22;7423;48.722;9.350;2023-10-13T14:08:26;28.20;67.80
14670;DHT22;7423;48.722;9.350;2023-10-13T14:10:56;28.30;67.80
14670;DHT22;7423;48.722;9.350;2023-10-13T14:13:39;28.30;67.20
14670;DHT22;7423;48.722;9.350;2023-10-13T14:16:17;28.30;66.90
14670;DHT22;7423;48.722;9.350;2023-10-13T14:18:49;28.30;65.80
14670;DHT22;7423;48.722;9.350;2023-10-13T14:21:17;28.30;65.80
14670;DHT22;7423;48.722;9.350;2023-10-13T14:23:46;28.30;66.20
14670;DHT22;7423;48.722;9.350;2023-10-13T14:26:17;28.30;65.60
14670;DHT22;7423;48.722;9.350;2023-10-13T14:28:48;28.40;65.80
14670;DHT22;7423;48.722;9.350;2023-10-13T14:31:28;28.40;65.30
14670;DHT22;7423;48.722;9.350;2023-10-13T14:33:56;28.50;65.40
14670;DHT22;7423;48.722;9.350;2023-10-13T14:36:26;28.50;64.70
14670;DHT22;7423;48.722;9.350;2023-10-13T14:38:56;28.40;64.80
14670;DHT22;7423;48.722;9.350;2023-10-13T14:41:24;28.50;64.90
14670;DHT22;7423;48.722;9.350;2023-10-13T14:43:51;28.50;64.10
14670;DHT22;7423;48.722;9.350;2023-10-13T14:46:19;28.60;64.60
14670;DHT22;7423;48.722;9.350;2023-10-13T14:48:53;28.60;64.20
14670;DHT22;7423;48.722;9.350;2023-10-13T14:51:20;28.60;63.70
14670;DHT22;7423;48.722;9.350;2023-10-13T14:53:48;28.50;64.50
14670;DHT22;7423;48.722;9.350;2023-10-13T14:56:18;28.50;63.60
14670;DHT22;7423;48.722;9.350;2023-10-13T14:58:45;28.50;64.10
14670;DHT22;7423;48.722;9.350;2023-10-13T15:01:18;28.40;62.80
14670;DHT22;7423;48.722;9.350;2023-10-13T15:03:48;28.50;62.30
14670;DHT22;7423;48.722;9.350;2023-10-13T15:06:17;28.50;61.50
14670;DHT22;7423;48.722;9.350;2023-10-13T15:08:45;28.50;62.20
14670;DHT22;7423;48.722;9.350;2023-10-13T15:11:16;28.40;61.90
14670;DHT22;7423;48.722;9.350;2023-10-13T15:13:45;28.30;61.50
14670;DHT22;7423;48.722;9.350;2023-10-13T15:16:25;28.40;60.40
14670;DHT22;7423;48.722;9.350;2023-10-13T15:18:56;28.40;60.40
14670;DHT22;7423;48.722;9.350;2023-10-13T15:21:26;28.40;60.40
14670;DHT22;7423;48.722;9.350;2023-10-13T15:23:57;28.40;60.00
14670;DHT22;7423;48.722;9.350;2023-10-13T15:26:30;28.40;59.90
14670;DHT22;7423;48.722;9.350;2023-10-13T15:28:57;28.40;59.80
14670;DHT22;7423;48.722;9.350;2023-10-13T15:31:27;28.30;59.00
14670;DHT22;7423;48.722;9.350;2023-10-13T15:34:05;28.20;59.30
14670;DHT22;7423;48.722;9.350;2023-10-13T15:36:42;28.30;58.60
14670;DHT22;7423;48.722;9.350;2023-10-13T15:39:10;28.30;58.80
14670;DHT22;7423;48.722;9.350;2023-10-13T15:41:38;28.30;58.60
14670;DHT22;7423;48.722;9.350;2023-10-13T15:44:05;28.20;58.80
14670;DHT22;7423;48.722;9.350;2023-10-13T15:46:37;28.20;59.70
14670;DHT22;7423;48.722;9.350;2023-10-13T15:49:24;28.10;59.20
14670;DHT22;7423;48.722;9.350;2023-10-13T15:51:54;28.10;59.40
14670;DHT22;7423;48.722;9.350;2023-10-13T15:54:24;28.10;60.50
14670;DHT22;7423;48.722;9.350;2023-10-13T15:56:51;28.10;59.30
14670;DHT22;7423;48.722;9.350;2023-10-13T15:59:18;28.10;58.80
14670;DHT22;7423;48.722;9.350;2023-10-13T16:01:45;28.00;59.50
14670;DHT22;7423;48.722;9.350;2023-10-13T16:04:13;28.00;60.70
14670;DHT22;7423;48.722;9.350;2023-10-13T16:06:45;27.90;60.40
14670;DHT22;7423;48.722;9.350;2023-10-13T16:09:14;27.80;60.50
14670;DHT22;7423;48.722;9.350;2023-10-13T16:11:52;27.80;60.10
14670;DHT22;7423;48.722;9.350;2023-10-13T16:14:20;27.70;60.30
14670;DHT22;7423;48.722;9.350;2023-10-13T16:16:50;27.70;60.30
14670;DHT22;7423;48.722;9.350;2023-10-13T16:19:21;27.60;60.20
14670;DHT22;7423;48.722;9.350;2023-10-13T16:21:50;27.60;60.70
14670;DHT22;7423;48.722;9.350;2023-10-13T16:24:18;27.50;61.30
14670;DHT22;7423;48.722;9.350;2023-10-13T16:26:46;27.50;62.70
14670;DHT22;7423;48.722;9.350;2023-10-13T16:29:19;27.50;62.80
14670;DHT22;7423;48.722;9.350;2023-10-13T16:31:47;27.40;63.60
14670;DHT22;7423;48.722;9.350;2023-10-13T16:34:16;27.30;63.90
14670;DHT22;7423;48.722;9.350;2023-10-13T16:36:48;27.30;65.20
14670;DHT22;7423;48.722;9.350;2023-10-13T16:39:21;27.10;65.70
14670;DHT22;7423;48.722;9.350;2023-10-13T16:41:51;27.00;66.30
14670;DHT22;7423;48.722;9.350;2023-10-13T16:44:22;27.00;66.50
14670;DHT22;7423;48.722;9.350;2023-10-13T16:46:53;26.80;67.50
14670;DHT22;7423;48.722;9.350;2023-10-13T16:49:27;26.70;68.20
14670;DHT22;7423;48.722;9.350;2023-10-13T16:51:56;26.70;68.50